createdAt,value
2019-03-17T00:01:13.005Z,6.95
2019-03-17T00:11:14.098Z,8.21
2019-03-17T00:21:12.935Z,7.84
2019-03-17T00:31:23.303Z,7.35
2019-03-17T00:41:12.947Z,5.83
2019-03-17T00:51:13.970Z,6.50
2019-03-17T01:01:12.929Z,7.12
2019-03-17T01:11:12.947Z,6.93
2019-03-17T01:21:12.954Z,7.63
2019-03-17T01:31:12.785Z,7.47
2019-03-17T01:41:13.860Z,6.47
2019-03-17T01:51:12.887Z,6.31
2019-03-17T02:01:20.174Z,5.78
2019-03-17T02:11:12.919Z,6.27
2019-03-17T02:41:14.681Z,5.53
2019-03-17T02:51:14.149Z,7.31
2019-03-17T03:01:14.189Z,7.38
2019-03-17T03:11:14.021Z,6.92
2019-03-17T03:21:14.173Z,6.79
2019-03-17T03:31:14.139Z,7.23
2019-03-17T03:41:14.168Z,7.94
2019-03-17T03:51:14.179Z,8.00
2019-03-17T04:01:14.247Z,6.71
2019-03-17T04:11:14.143Z,8.74
2019-03-17T04:21:14.142Z,8.70
2019-03-17T04:31:14.684Z,7.42
2019-03-17T04:41:14.139Z,6.67
2019-03-17T04:51:14.152Z,7.32
2019-03-17T05:01:14.220Z,6.76
2019-03-17T05:11:14.207Z,6.60
2019-03-17T05:21:14.234Z,7.13
2019-03-17T05:31:14.176Z,5.87
2019-03-17T05:41:14.184Z,4.90
2019-03-17T05:51:14.116Z,5.53
2019-03-17T06:01:14.140Z,6.07
2019-03-17T06:11:14.172Z,5.02
2019-03-17T06:21:14.096Z,5.54
2019-03-17T06:31:14.137Z,6.16
2019-03-17T06:41:14.181Z,5.75
2019-03-17T06:51:14.142Z,5.40
2019-03-17T07:01:14.173Z,5.64
2019-03-17T07:11:15.151Z,5.32
2019-03-17T07:21:14.146Z,4.90
2019-03-17T07:31:15.149Z,5.08
2019-03-17T07:41:15.289Z,4.93
2019-03-17T07:51:14.117Z,4.06
2019-03-17T08:01:14.107Z,3.28
2019-03-17T08:11:14.595Z,3.71
2019-03-17T08:21:14.146Z,3.84
2019-03-17T08:31:14.157Z,3.18
2019-03-17T08:41:14.098Z,3.83
2019-03-17T08:51:14.172Z,4.49
2019-03-17T09:01:14.123Z,3.74
2019-03-17T09:11:14.111Z,6.15
2019-03-17T09:21:14.103Z,4.90
2019-03-17T09:31:14.086Z,3.85
2019-03-17T09:41:14.148Z,3.89
2019-03-17T09:51:14.128Z,3.12
2019-03-17T10:01:14.073Z,4.45
2019-03-17T10:11:14.085Z,4.25
2019-03-17T10:21:13.961Z,5.29
2019-03-17T10:31:14.291Z,3.93
2019-03-17T10:41:14.117Z,5.81
2019-03-17T10:51:14.080Z,2.57
2019-03-17T11:01:14.131Z,2.14
2019-03-17T11:11:14.760Z,3.40
2019-03-17T11:21:14.106Z,6.83
2019-03-17T11:31:15.061Z,4.43
2019-03-17T11:41:14.029Z,5.51
2019-03-17T11:51:14.214Z,5.48
2019-03-17T12:01:17.890Z,5.07
2019-03-17T12:11:14.196Z,5.25
2019-03-17T12:21:13.996Z,3.68
2019-03-17T12:31:14.120Z,4.11
2019-03-17T12:41:14.143Z,4.01
2019-03-17T12:51:14.108Z,4.26
2019-03-17T13:01:14.131Z,4.00
2019-03-17T13:11:14.047Z,3.21
2019-03-17T13:21:14.097Z,3.07
2019-03-17T13:31:14.133Z,3.97
2019-03-17T13:41:14.124Z,1.10
2019-03-17T13:51:14.064Z,1.42
2019-03-17T14:01:14.079Z,0.78
2019-03-17T14:11:14.123Z,1.22
2019-03-17T14:21:14.143Z,1.05
2019-03-17T14:31:14.145Z,2.26
2019-03-17T14:41:14.124Z,1.99
2019-03-17T14:51:14.795Z,2.40
2019-03-17T15:01:14.108Z,1.63
2019-03-17T15:11:14.162Z,1.23
2019-03-17T15:21:14.184Z,1.38
2019-03-17T15:31:13.984Z,0.83
2019-03-17T15:41:18.776Z,0.88
2019-03-17T15:51:20.414Z,1.26
2019-03-17T16:01:14.144Z,1.28
2019-03-17T16:11:14.209Z,2.75
2019-03-17T16:21:14.036Z,2.05
2019-03-17T16:31:14.098Z,3.73
2019-03-17T16:41:14.046Z,4.19
2019-03-17T16:51:13.985Z,4.40
2019-03-17T17:01:14.079Z,3.34
2019-03-17T17:11:14.031Z,4.44
2019-03-17T17:21:14.060Z,3.79
2019-03-17T17:31:14.052Z,2.93
2019-03-17T17:41:14.017Z,1.41
2019-03-17T17:51:14.118Z,1.44
2019-03-17T18:01:14.148Z,1.80
2019-03-17T18:11:14.008Z,3.70
2019-03-17T18:21:14.058Z,3.36
2019-03-17T18:31:14.066Z,3.40
2019-03-17T18:41:14.016Z,3.75
2019-03-17T18:51:14.018Z,4.23
2019-03-17T19:01:14.009Z,4.08
2019-03-17T19:11:14.032Z,2.97
2019-03-17T19:21:13.962Z,3.33
2019-03-17T19:31:13.949Z,2.84
2019-03-17T19:41:14.016Z,3.50
2019-03-17T19:51:14.010Z,2.95
2019-03-17T20:01:14.839Z,2.83
2019-03-17T20:11:14.063Z,4.04
2019-03-17T20:21:14.036Z,4.09
2019-03-17T20:31:14.016Z,3.94
2019-03-17T20:41:13.996Z,2.82
2019-03-17T20:51:14.023Z,2.18
2019-03-17T21:01:13.954Z,2.68
2019-03-17T21:11:13.999Z,2.76
2019-03-17T21:21:14.030Z,3.58
2019-03-17T21:31:14.020Z,3.81
2019-03-17T21:41:14.041Z,3.92
2019-03-17T21:51:13.942Z,3.82
2019-03-17T22:01:14.044Z,3.10
2019-03-17T22:11:14.029Z,3.31
2019-03-17T22:21:14.607Z,2.81
2019-03-17T22:31:13.984Z,2.95
2019-03-17T22:41:14.676Z,3.01
2019-03-17T22:51:14.009Z,3.34
2019-03-17T23:01:13.978Z,3.74
2019-03-17T23:11:14.060Z,3.64
2019-03-17T23:21:13.936Z,3.60
2019-03-17T23:31:13.947Z,3.14
2019-03-17T23:41:13.986Z,3.71
2019-03-17T23:51:14.008Z,3.27
